Time;durP1;ratioP1;P1;durP2;ratioP2;P2;SDS_P1;SDS_P2;PMS_P1;PMS_P2;Temp;Humidity;BMP_temperature;BMP_pressure;BME280_temperature;BME280_humidity;BME280_pressure;Samples;Min_cycle;Max_cycle;Signal;HPM_P1;HPM_P2
2022/03/05 00:01:23;;;;;;;21.85;10.48;;;-0.90;99.90;;;;;;5008703;28;20045;-60
2022/03/05 00:03:49;;;;;;;22.98;11.13;;;-1.00;99.90;;;;;;5001571;28;20034;-60
2022/03/05 00:06:14;;;;;;;22.80;11.30;;;-1.00;99.90;;;;;;4993354;28;20040;-60
2022/03/05 00:08:40;;;;;;;24.90;11.23;;;-1.00;99.90;;;;;;4991457;28;20034;-60
2022/03/05 00:11:06;;;;;;;22.33;11.05;;;-1.00;99.90;;;;;;4981870;28;20092;-60
2022/03/05 00:13:31;;;;;;;23.27;10.80;;;-1.10;99.90;;;;;;4991993;28;20042;-58
2022/03/05 00:15:57;;;;;;;20.10;9.98;;;-1.10;99.90;;;;;;4994319;28;20082;-61
2022/03/05 00:18:23;;;;;;;21.75;10.73;;;-1.20;99.90;;;;;;4982251;28;20046;-59
2022/03/05 00:20:51;;;;;;;20.83;10.50;;;-1.20;99.90;;;;;;4990198;28;20050;-60
2022/03/05 00:23:16;;;;;;;24.42;10.85;;;-1.20;99.90;;;;;;4990945;28;20083;-60
2022/03/05 00:25:43;;;;;;;20.95;10.27;;;-1.30;99.90;;;;;;4998333;28;20061;-61
2022/03/05 00:28:09;;;;;;;21.38;9.45;;;-1.40;99.90;;;;;;4996002;28;20115;-59
2022/03/05 00:30:34;;;;;;;20.65;9.93;;;-1.40;99.90;;;;;;4982259;28;20046;-60
2022/03/05 00:33:00;;;;;;;17.48;8.98;;;-1.60;99.90;;;;;;5010657;28;20633;-61
2022/03/05 00:35:25;;;;;;;22.15;10.68;;;-1.70;99.90;;;;;;4998421;28;20030;-60
2022/03/05 00:37:51;;;;;;;21.85;10.98;;;-1.80;99.90;;;;;;4989861;28;20481;-60
2022/03/05 00:40:17;;;;;;;26.85;12.40;;;-1.60;99.90;;;;;;4998251;28;20114;-60
2022/03/05 00:42:42;;;;;;;25.42;12.02;;;-1.40;99.90;;;;;;5001563;28;20079;-61
2022/03/05 00:45:08;;;;;;;27.15;12.15;;;-1.20;99.90;;;;;;4990851;28;20034;-60
2022/03/05 00:47:35;;;;;;;26.83;12.27;;;-1.00;99.90;;;;;;4996533;28;20026;-60
2022/03/05 00:50:03;;;;;;;24.08;12.65;;;-0.90;99.90;;;;;;5002834;28;20105;-61
2022/03/05 00:52:28;;;;;;;23.65;11.07;;;-0.80;99.90;;;;;;4995058;28;20038;-61
2022/03/05 00:54:54;;;;;;;24.13;10.68;;;-0.80;99.90;;;;;;4994764;28;20113;-61
2022/03/05 00:57:20;;;;;;;24.70;11.73;;;-0.80;99.90;;;;;;4999327;28;20070;-60
2022/03/05 00:59:45;;;;;;;23.90;11.07;;;-0.80;99.90;;;;;;5007960;28;20123;-60
2022/03/05 01:02:11;;;;;;;23.73;11.45;;;-0.80;99.90;;;;;;4993303;28;20121;-60
2022/03/05 01:04:36;;;;;;;24.10;12.05;;;-0.80;99.90;;;;;;5000210;28;20036;-61
2022/03/05 01:07:02;;;;;;;22.20;11.25;;;-0.80;99.90;;;;;;4996381;28;20029;-60
2022/03/05 01:09:27;;;;;;;24.35;11.98;;;-0.80;99.90;;;;;;4995306;28;20045;-60
2022/03/05 01:11:53;;;;;;;24.67;11.88;;;-0.90;99.90;;;;;;5000933;28;20034;-61
2022/03/05 01:14:18;;;;;;;26.17;11.80;;;-0.90;99.90;;;;;;4995993;28;20100;-60
2022/03/05 01:16:44;;;;;;;30.77;12.13;;;-0.90;99.90;;;;;;4992973;28;20682;-60
2022/03/05 01:19:09;;;;;;;22.67;10.77;;;-0.80;99.90;;;;;;4989946;28;20457;-60
2022/03/05 01:21:36;;;;;;;23.17;11.40;;;-0.90;99.90;;;;;;4990628;28;20065;-60
2022/03/05 01:24:02;;;;;;;23.30;10.57;;;-0.90;99.90;;;;;;5009610;28;20073;-60
2022/03/05 01:26:29;;;;;;;26.42;11.25;;;-0.90;99.90;;;;;;5010303;28;20038;-60
2022/03/05 01:28:55;;;;;;;25.15;11.82;;;-1.00;99.90;;;;;;4980138;28;20420;-61
2022/03/05 01:31:21;;;;;;;22.30;11.57;;;-1.00;99.90;;;;;;5001672;28;20030;-61
2022/03/05 01:33:46;;;;;;;23.63;10.68;;;-1.00;99.90;;;;;;4992130;28;20129;-60
2022/03/05 01:36:12;;;;;;;24.27;11.48;;;-1.00;99.90;;;;;;4992887;28;20124;-60
2022/03/05 01:38:37;;;;;;;25.17;11.32;;;-1.00;99.90;;;;;;5008248;28;20038;-60
2022/03/05 01:41:03;;;;;;;24.48;11.07;;;-1.00;99.90;;;;;;4998314;28;20042;-60
2022/03/05 01:43:28;;;;;;;24.50;11.48;;;-0.90;99.90;;;;;;4988758;28;20451;-59
2022/03/05 01:45:54;;;;;;;29.92;11.82;;;-1.00;99.90;;;;;;4997428;28;20030;-60
2022/03/05 01:48:20;;;;;;;24.20;11.55;;;-0.90;99.90;;;;;;4998410;28;20042;-60
2022/03/05 01:50:47;;;;;;;24.13;10.75;;;-0.90;99.90;;;;;;4990650;28;20493;-61
2022/03/05 01:53:13;;;;;;;21.58;11.00;;;-0.90;99.90;;;;;;4991811;28;20042;-61
2022/03/05 01:55:39;;;;;;;24.38;11.32;;;-0.90;99.90;;;;;;4998035;28;20041;-61
2022/03/05 01:58:04;;;;;;;24.88;11.18;;;-0.90;99.90;;;;;;5009525;28;20052;-60
2022/03/05 02:00:30;;;;;;;21.88;10.00;;;-1.00;99.90;;;;;;4999422;28;20404;-61
2022/03/05 02:02:56;;;;;;;21.30;10.32;;;-1.00;99.90;;;;;;4996590;28;20044;-60
2022/03/05 02:05:21;;;;;;;20.42;9.98;;;-1.00;99.90;;;;;;4997116;28;20544;-60
2022/03/05 02:07:47;;;;;;;20.67;9.73;;;-1.20;99.90;;;;;;4990044;28;20037;-61
2022/03/05 02:10:12;;;;;;;22.58;10.48;;;-1.40;99.90;;;;;;4989180;28;20026;-60
2022/03/05 02:12:39;;;;;;;20.67;10.52;;;-1.70;99.90;;;;;;4997320;28;20484;-60
2022/03/05 02:15:06;;;;;;;19.08;9.57;;;-1.80;99.90;;;;;;4989639;28;20053;-61
2022/03/05 02:17:32;;;;;;;19.92;9.63;;;-2.00;99.90;;;;;;4988753;28;20030;-61
2022/03/05 02:19:58;;;;;;;25.13;11.20;;;-2.10;99.90;;;;;;4989431;28;20058;-60
2022/03/05 02:22:25;;;;;;;23.08;10.85;;;-2.20;99.90;;;;;;4997197;28;20064;-60
2022/03/05 02:24:55;;;;;;;23.17;10.77;;;-2.10;99.90;;;;;;4989209;28;20041;-60
2022/03/05 02:27:23;;;;;;;24.15;11.55;;;-1.80;99.90;;;;;;4992613;28;20034;-61
2022/03/05 02:29:49;;;;;;;23.58;11.40;;;-1.60;99.90;;;;;;4998824;28;20041;-61
2022/03/05 02:32:15;;;;;;;22.73;10.65;;;-1.50;99.90;;;;;;4989349;28;20045;-60
2022/03/05 02:34:40;;;;;;;27.08;10.60;;;-1.30;99.90;;;;;;4986939;28;20062;-60
2022/03/05 02:37:10;;;;;;;25.10;11.18;;;-1.30;99.90;;;;;;4993273;28;20060;-60
2022/03/05 02:39:36;;;;;;;23.17;10.95;;;-1.20;99.90;;;;;;4992362;28;20125;-61
2022/03/05 02:42:02;;;;;;;22.55;11.02;;;-1.10;99.90;;;;;;4989233;28;20137;-59
2022/03/05 02:44:27;;;;;;;21.30;9.88;;;-1.10;99.90;;;;;;4991108;28;20125;-60
2022/03/05 02:46:53;;;;;;;21.98;9.88;;;-1.10;99.90;;;;;;4995377;28;20037;-59
2022/03/05 02:49:18;;;;;;;21.45;10.45;;;-1.10;99.90;;;;;;4994879;28;20113;-59
2022/03/05 02:51:44;;;;;;;21.80;10.50;;;-1.00;99.90;;;;;;4992381;28;20482;-60
2022/03/05 02:54:09;;;;;;;23.63;10.77;;;-1.00;99.90;;;;;;4995857;28;20544;-59
2022/03/05 02:56:35;;;;;;;21.33;10.75;;;-1.00;99.90;;;;;;5000360;28;20046;-60
2022/03/05 02:59:00;;;;;;;22.70;10.48;;;-1.00;99.90;;;;;;5008598;28;20112;-60
2022/03/05 03:01:26;;;;;;;20.85;10.57;;;-1.00;99.90;;;;;;4993137;28;20048;-60
2022/03/05 03:03:51;;;;;;;21.45;10.13;;;-1.10;99.90;;;;;;4997843;28;20091;-60
2022/03/05 03:06:17;;;;;;;24.48;10.23;;;-1.10;99.90;;;;;;4988609;28;20038;-59
2022/03/05 03:08:43;;;;;;;19.15;10.07;;;-1.10;99.90;;;;;;4993892;28;20113;-60
2022/03/05 03:11:08;;;;;;;22.17;10.32;;;-1.10;99.90;;;;;;4998470;28;20038;-60
2022/03/05 03:13:34;;;;;;;20.27;9.63;;;-1.10;99.90;;;;;;4974593;28;20559;-59
2022/03/05 03:15:59;;;;;;;20.30;9.48;;;-1.10;99.90;;;;;;4988755;28;20038;-60
2022/03/05 03:18:25;;;;;;;19.60;9.35;;;-1.10;99.90;;;;;;5000777;28;20045;-59
2022/03/05 03:20:51;;;;;;;20.83;10.23;;;-1.10;99.90;;;;;;4999102;28;20077;-60
2022/03/05 03:23:16;;;;;;;23.48;10.25;;;-1.10;99.90;;;;;;4994114;28;20038;-60
2022/03/05 03:25:42;;;;;;;21.38;10.15;;;-1.10;99.90;;;;;;4989668;28;20038;-60
2022/03/05 03:28:08;;;;;;;20.42;9.80;;;-1.10;99.90;;;;;;4996694;28;20031;-60
2022/03/05 03:30:34;;;;;;;20.67;9.70;;;-1.10;99.90;;;;;;4988156;28;20100;-60
2022/03/05 03:33:00;;;;;;;20.70;9.48;;;-1.10;99.90;;;;;;4990143;28;20057;-60
2022/03/05 03:35:25;;;;;;;21.73;9.63;;;-1.10;99.90;;;;;;4990654;28;20042;-60
2022/03/05 03:37:51;;;;;;;22.70;9.43;;;-1.10;99.90;;;;;;4996248;28;20065;-60
2022/03/05 03:40:18;;;;;;;19.75;9.15;;;-1.10;99.90;;;;;;4987722;28;20140;-59
2022/03/05 03:42:45;;;;;;;20.63;8.90;;;-1.10;99.90;;;;;;4994677;28;20049;-60
2022/03/05 03:45:11;;;;;;;20.42;9.43;;;-1.10;99.90;;;;;;4996339;28;20038;-59
2022/03/05 03:47:38;;;;;;;22.85;10.18;;;-1.10;99.90;;;;;;4988654;28;20038;-60
2022/03/05 03:50:05;;;;;;;24.95;10.05;;;-1.10;99.90;;;;;;4989337;28;20675;-60
2022/03/05 03:52:31;;;;;;;21.67;10.45;;;-1.10;99.90;;;;;;4996352;28;20050;-60
2022/03/05 03:54:56;;;;;;;19.98;9.68;;;-1.20;99.90;;;;;;4995598;28;20058;-60
2022/03/05 03:57:22;;;;;;;22.60;11.00;;;-1.20;99.90;;;;;;5001220;28;20041;-59
2022/03/05 03:59:51;;;;;;;20.50;10.02;;;-1.20;99.90;;;;;;4984142;28;20037;-60
2022/03/05 04:02:17;;;;;;;21.52;10.45;;;-1.20;99.90;;;;;;4995942;28;20055;-60
2022/03/05 04:04:43;;;;;;;21.73;10.05;;;-1.20;99.90;;;;;;4987168;28;20034;-60
2022/03/05 04:09:53;;;;;;;21.67;9.77;;;-1.30;99.90;;;;;;4996304;28;20633;-59
2022/03/05 04:12:18;;;;;;;23.25;10.15;;;-1.30;99.90;;;;;;4988047;28;20042;-59
2022/03/05 04:14:44;;;;;;;23.35;10.40;;;-1.30;99.90;;;;;;4995503;28;20088;-60
2022/03/05 04:17:09;;;;;;;23.45;9.93;;;-1.30;99.90;;;;;;4992424;28;20091;-60
2022/03/05 04:19:35;;;;;;;22.50;10.90;;;-1.30;99.90;;;;;;4991227;28;20086;-59
2022/03/05 04:22:01;;;;;;;23.50;10.20;;;-1.30;99.90;;;;;;4988155;28;20125;-60
2022/03/05 04:24:27;;;;;;;22.70;9.98;;;-1.30;99.90;;;;;;4993101;28;20121;-59
2022/03/05 04:26:53;;;;;;;24.48;9.85;;;-1.40;99.90;;;;;;4991053;28;20117;-59
2022/03/05 04:29:18;;;;;;;22.90;9.48;;;-1.50;99.90;;;;;;4996345;28;20038;-59
2022/03/05 04:31:44;;;;;;;18.38;9.07;;;-1.60;99.90;;;;;;4998610;28;20535;-60
2022/03/05 04:34:10;;;;;;;21.92;9.57;;;-1.70;99.90;;;;;;4994921;28;20042;-60
2022/03/05 04:36:35;;;;;;;22.33;9.10;;;-1.80;99.90;;;;;;5002118;28;20049;-58
2022/03/05 04:39:02;;;;;;;20.48;9.20;;;-1.90;99.90;;;;;;5001662;28;20034;-60
2022/03/05 04:41:27;;;;;;;22.00;10.05;;;-2.00;99.90;;;;;;5007275;28;20127;-60
2022/03/05 04:43:53;;;;;;;22.58;9.80;;;-2.10;99.90;;;;;;4990314;28;20578;-60
2022/03/05 04:46:18;;;;;;;23.63;10.15;;;-2.10;99.90;;;;;;4997924;28;20041;-60
2022/03/05 04:48:44;;;;;;;23.75;10.75;;;-2.00;99.90;;;;;;4990477;28;20045;-59
2022/03/05 04:51:10;;;;;;;23.08;10.18;;;-1.90;99.90;;;;;;4995672;28;20103;-59
2022/03/05 04:53:35;;;;;;;22.77;9.93;;;-1.80;99.90;;;;;;4994280;28;20081;-60
2022/03/05 04:56:01;;;;;;;20.05;9.20;;;-1.70;99.90;;;;;;4994335;28;20034;-59
2022/03/05 04:58:26;;;;;;;22.38;9.82;;;-1.60;99.90;;;;;;4993253;28;20042;-60
2022/03/05 05:00:52;;;;;;;25.80;9.93;;;-1.60;99.90;;;;;;4999055;28;20045;-58
2022/03/05 05:03:17;;;;;;;21.23;9.50;;;-1.60;99.90;;;;;;4990706;28;20425;-59
2022/03/05 05:05:43;;;;;;;21.98;10.40;;;-1.50;99.90;;;;;;4996585;28;20038;-60
2022/03/05 05:08:09;;;;;;;21.88;9.85;;;-1.50;99.90;;;;;;4998817;28;20034;-60
2022/03/05 05:10:34;;;;;;;21.55;9.27;;;-1.50;99.90;;;;;;4973801;28;20038;-59
2022/03/05 05:13:00;;;;;;;22.10;9.75;;;-1.50;99.90;;;;;;4992830;28;20121;-59
2022/03/05 05:15:25;;;;;;;22.38;9.50;;;-1.50;99.90;;;;;;4991595;28;20054;-60
2022/03/05 05:17:51;;;;;;;24.80;9.73;;;-1.50;99.90;;;;;;4998652;28;20040;-59
2022/03/05 05:20:16;;;;;;;23.13;10.45;;;-1.50;99.90;;;;;;4989435;28;20086;-59
2022/03/05 05:22:42;;;;;;;20.33;9.50;;;-1.50;99.90;;;;;;4997644;28;20077;-59
2022/03/05 05:25:08;;;;;;;21.50;9.32;;;-1.50;99.90;;;;;;4998607;28;20030;-59
2022/03/05 05:27:38;;;;;;;21.80;10.07;;;-1.50;99.90;;;;;;4990740;28;20034;-59
2022/03/05 05:30:06;;;;;;;24.95;10.57;;;-1.50;99.90;;;;;;4990292;28;20030;-60
2022/03/05 05:32:32;;;;;;;26.05;9.63;;;-1.50;99.90;;;;;;4993022;28;20069;-59
2022/03/05 05:34:58;;;;;;;22.30;9.48;;;-1.50;99.90;;;;;;4998013;28;20081;-60
2022/03/05 05:37:23;;;;;;;24.00;9.93;;;-1.50;99.90;;;;;;4990057;28;20034;-59
2022/03/05 05:39:49;;;;;;;22.35;9.65;;;-1.50;99.90;;;;;;4990601;28;20062;-59
2022/03/05 05:42:15;;;;;;;19.50;8.82;;;-1.50;99.90;;;;;;4998173;28;20038;-60
2022/03/05 05:44:41;;;;;;;28.42;10.15;;;-1.50;99.90;;;;;;4989874;28;20038;-59
2022/03/05 05:47:07;;;;;;;22.77;10.30;;;-1.50;99.90;;;;;;4988454;28;20073;-59
2022/03/05 05:49:32;;;;;;;20.40;9.35;;;-1.50;99.90;;;;;;4993244;28;20044;-59
2022/03/05 05:51:58;;;;;;;21.42;10.13;;;-1.50;99.90;;;;;;4997266;28;20052;-59
2022/03/05 05:54:23;;;;;;;22.83;9.30;;;-1.50;99.90;;;;;;4990530;28;20036;-59
2022/03/05 05:56:49;;;;;;;23.42;9.73;;;-1.50;99.90;;;;;;4991053;28;20034;-60
2022/03/05 05:59:15;;;;;;;25.00;9.85;;;-1.50;99.90;;;;;;4996312;28;20038;-59
2022/03/05 06:01:41;;;;;;;21.70;9.88;;;-1.50;99.90;;;;;;4995519;28;20096;-60
2022/03/05 06:04:07;;;;;;;23.00;9.32;;;-1.50;99.90;;;;;;4989894;28;20073;-60
2022/03/05 06:06:33;;;;;;;23.35;9.32;;;-1.50;99.90;;;;;;5011201;22;20093;-61
2022/03/05 06:08:58;;;;;;;23.60;9.85;;;-1.50;99.90;;;;;;4990830;28;20108;-61
2022/03/05 06:11:24;;;;;;;19.33;8.88;;;-1.50;99.90;;;;;;4992191;28;20034;-61
2022/03/05 06:17:10;;;;;;;21.13;9.40;;;-1.50;99.90;;;;;;5159662;22;20551;-61
2022/03/05 06:19:36;;;;;;;20.40;9.15;;;-1.50;99.90;;;;;;5016007;28;20121;-61
2022/03/05 06:22:02;;;;;;;22.48;9.77;;;-1.50;99.90;;;;;;4992693;28;20053;-61
2022/03/05 06:24:28;;;;;;;21.02;8.77;;;-1.40;99.90;;;;;;5008326;28;20041;-61
2022/03/05 06:26:53;;;;;;;20.58;8.95;;;-1.40;99.90;;;;;;4972234;28;20074;-61
2022/03/05 06:36:54;;;;;;;21.05;8.90;;;-1.40;99.90;;;;;;5105820;22;20052;-62
2022/03/05 06:39:20;;;;;;;19.38;8.80;;;-1.40;99.90;;;;;;5431332;22;20069;-62
2022/03/05 06:45:27;;;;;;;19.60;8.88;;;-1.40;99.90;;;;;;5180394;22;20052;-62
2022/03/05 06:47:52;;;;;;;21.23;9.02;;;-1.30;99.90;;;;;;5011777;28;20042;-62
2022/03/05 06:57:24;;;;;;;18.92;8.52;;;-1.10;99.90;;;;;;5153602;22;20049;-62
2022/03/05 06:59:50;;;;;;;20.98;8.82;;;-1.10;99.90;;;;;;5041870;28;20141;-62
2022/03/05 07:02:16;;;;;;;22.30;9.30;;;-1.00;99.90;;;;;;5024842;28;20052;-62
2022/03/05 07:04:41;;;;;;;19.70;8.68;;;-1.00;99.90;;;;;;5311314;22;20044;-62
2022/03/05 07:07:07;;;;;;;20.73;9.13;;;-0.90;99.90;;;;;;5046044;28;20039;-62
2022/03/05 07:09:33;;;;;;;20.35;9.32;;;-0.90;99.90;;;;;;5041872;28;20036;-62
2022/03/05 07:15:42;;;;;;;21.55;9.65;;;-0.80;99.90;;;;;;5049219;22;20502;-62
2022/03/05 07:18:08;;;;;;;24.63;9.50;;;-0.70;99.90;;;;;;4965473;28;20116;-62
2022/03/05 07:23:10;;;;;;;21.92;10.23;;;-0.50;99.90;;;;;;5082284;22;20042;-62
2022/03/05 07:25:39;;;;;;;27.30;10.27;;;-0.50;99.90;;;;;;5012968;28;20041;-63
2022/03/05 07:31:07;;;;;;;;;;;-0.30;99.90;;;;;;5134577;22;20045;-62
2022/03/05 07:33:32;;;;;;;20.52;9.60;;;-0.30;99.90;;;;;;5013399;28;19944;-62
2022/03/05 07:35:59;;;;;;;22.10;9.98;;;-0.20;99.90;;;;;;4991826;28;20181;-63
2022/03/05 07:38:25;;;;;;;23.92;11.25;;;-0.20;99.90;;;;;;4995648;28;20034;-63
2022/03/05 07:44:31;;;;;;;22.58;9.93;;;-0.10;99.90;;;;;;5170640;22;20124;-62
2022/03/05 07:46:57;;;;;;;22.38;10.73;;;0.00;99.90;;;;;;5003897;28;20034;-61
2022/03/05 07:49:23;;;;;;;22.95;10.13;;;0.10;99.90;;;;;;5007100;28;20030;-61
2022/03/05 07:51:49;;;;;;;23.10;11.27;;;0.20;99.90;;;;;;4991482;28;20073;-62
2022/03/05 07:54:15;;;;;;;24.10;10.85;;;0.20;99.90;;;;;;5009819;28;20169;-62
2022/03/05 07:59:16;;;;;;;24.88;11.07;;;0.30;99.90;;;;;;5042233;22;20037;-62
2022/03/05 08:01:41;;;;;;;24.27;11.15;;;0.40;99.90;;;;;;5011087;28;20030;-63
2022/03/05 08:04:07;;;;;;;25.67;11.60;;;0.50;99.90;;;;;;5010751;28;20120;-62
2022/03/05 08:06:32;;;;;;;25.80;11.38;;;0.50;99.90;;;;;;5031104;28;20142;-62
2022/03/05 08:08:59;;;;;;;25.80;10.98;;;0.60;99.90;;;;;;5014341;28;20030;-61
2022/03/05 08:14:00;;;;;;;27.17;11.30;;;0.70;99.90;;;;;;5144046;22;20046;-61
2022/03/05 08:16:27;;;;;;;24.92;11.35;;;0.80;99.90;;;;;;5003863;28;20477;-61
2022/03/05 08:23:11;;;;;;;24.20;11.23;;;0.90;99.90;;;;;;5028903;28;20106;-61
2022/03/05 08:26:22;;;;;;;27.00;12.57;;;0.90;99.90;;;;;;4994097;28;20065;-62
2022/03/05 08:32:30;;;;;;;26.60;11.77;;;1.10;99.90;;;;;;5086720;22;20086;-61
2022/03/05 08:34:56;;;;;;;30.23;12.05;;;1.20;99.90;;;;;;5013102;28;20034;-62
2022/03/05 08:43:38;;;;;;;27.40;11.70;;;1.40;99.90;;;;;;5012765;28;20196;-63
2022/03/05 08:46:05;;;;;;;25.60;12.13;;;1.40;99.90;;;;;;5022692;28;20627;-61
2022/03/05 08:48:30;;;;;;;26.23;12.02;;;1.50;99.90;;;;;;5024305;28;20063;-63
2022/03/05 08:50:56;;;;;;;28.48;11.70;;;1.60;99.90;;;;;;5021740;28;20645;-62
2022/03/05 08:54:10;;;;;;;29.85;10.95;;;1.60;99.90;;;;;;5010498;28;20037;-61
2022/03/05 09:03:56;;;;;;;29.02;12.95;;;1.80;99.90;;;;;;5005474;28;20055;-61
2022/03/05 09:07:18;;;;;;;26.48;12.30;;;1.90;99.90;;;;;;5033561;28;20025;-62
2022/03/05 09:09:47;;;;;;;28.25;12.60;;;2.00;99.90;;;;;;4978571;28;20124;-62
2022/03/05 09:12:13;;;;;;;31.00;13.10;;;2.00;99.90;;;;;;5024202;28;20120;-62
2022/03/05 09:14:38;;;;;;;31.85;13.35;;;2.10;99.90;;;;;;5008571;28;20357;-63
2022/03/05 09:17:04;;;;;;;30.83;13.20;;;2.20;99.90;;;;;;5021025;28;20033;-62
2022/03/05 09:19:30;;;;;;;29.63;12.55;;;2.20;99.90;;;;;;5041872;28;20052;-62
2022/03/05 09:21:56;;;;;;;31.75;14.05;;;2.20;99.90;;;;;;5022420;28;20857;-62
2022/03/05 09:24:22;;;;;;;26.05;12.10;;;2.20;99.90;;;;;;5003713;28;20496;-62
2022/03/05 09:26:47;;;;;;;33.10;13.95;;;2.30;99.90;;;;;;5015685;28;20428;-62
2022/03/05 09:29:13;;;;;;;32.78;13.43;;;2.30;99.90;;;;;;5016350;28;20165;-62
2022/03/05 09:31:39;;;;;;;32.22;13.73;;;2.40;99.90;;;;;;5008895;28;20117;-62
2022/03/05 09:34:05;;;;;;;31.48;13.30;;;2.40;99.90;;;;;;5023477;28;20056;-62
2022/03/05 09:36:31;;;;;;;31.73;13.02;;;2.50;99.90;;;;;;5012045;28;20835;-62
2022/03/05 09:39:36;;;;;;;32.40;13.32;;;2.50;99.90;;;;;;5016977;28;20084;-62
2022/03/05 09:42:21;;;;;;;31.17;13.38;;;2.60;99.90;;;;;;5001888;28;20779;-63
2022/03/05 09:44:47;;;;;;;31.10;14.20;;;2.70;99.90;;;;;;5014260;28;20129;-63
2022/03/05 09:47:14;;;;;;;28.75;12.68;;;2.70;99.90;;;;;;4983055;28;20123;-62
2022/03/05 09:55:39;;;;;;;31.17;13.35;;;2.80;99.90;;;;;;5461039;22;20066;-62
2022/03/05 09:58:05;;;;;;;31.70;14.25;;;2.90;99.90;;;;;;5009410;28;20062;-63
2022/03/05 10:03:06;;;;;;;36.72;14.05;;;3.00;99.90;;;;;;5010757;28;20050;-62
2022/03/05 10:08:13;;;;;;;31.73;13.40;;;3.10;99.90;;;;;;5182563;22;20061;-62
2022/03/05 10:13:31;;;;;;;34.47;13.27;;;3.30;99.90;;;;;;5257808;22;19921;-62
2022/03/05 10:16:28;;;;;;;37.63;14.18;;;3.30;99.90;;;;;;5043786;28;20531;-62
2022/03/05 10:18:55;;;;;;;32.15;13.95;;;3.30;99.90;;;;;;5029328;28;20044;-62
2022/03/05 10:24:08;;;;;;;32.03;14.32;;;3.40;99.90;;;;;;5048220;22;20100;-63
2022/03/05 10:26:51;;;;;;;33.08;13.70;;;3.40;99.90;;;;;;5027281;28;20056;-62
2022/03/05 10:29:18;;;;;;;33.38;13.63;;;3.50;99.90;;;;;;5010972;28;20694;-62
2022/03/05 10:32:04;;;;;;;38.75;14.68;;;3.50;99.90;;;;;;5015695;28;20507;-62
2022/03/05 10:39:41;;;;;;;34.38;13.90;;;3.80;99.90;;;;;;5009737;28;20046;-62
2022/03/05 10:42:20;;;;;;;36.00;14.13;;;3.80;99.90;;;;;;5000286;28;20045;-62
2022/03/05 10:45:01;;;;;;;32.75;14.35;;;3.90;99.90;;;;;;5000874;28;20064;-62
2022/03/05 10:54:39;;;;;;;31.50;13.23;;;4.10;99.90;;;;;;4974559;28;20053;-61
2022/03/05 10:57:15;;;;;;;32.50;14.52;;;4.20;99.90;;;;;;4954425;28;20065;-61
2022/03/05 10:59:44;;;;;;;37.05;15.07;;;4.20;99.90;;;;;;4965259;28;20046;-61
2022/03/05 11:02:11;;;;;;;32.08;14.68;;;4.40;99.90;;;;;;4969554;28;20047;-61
2022/03/05 11:04:39;;;;;;;34.85;14.25;;;4.30;99.90;;;;;;4955195;28;20047;-61
2022/03/05 11:07:07;;;;;;;32.03;14.52;;;4.30;99.90;;;;;;4946310;28;20043;-60
2022/03/05 11:09:35;;;;;;;30.30;13.93;;;4.30;99.90;;;;;;4951189;28;20086;-60
2022/03/05 11:12:01;;;;;;;34.03;14.60;;;4.30;99.90;;;;;;4954375;28;20143;-61
2022/03/05 11:14:28;;;;;;;36.88;14.95;;;4.50;99.90;;;;;;4956013;28;20099;-61
2022/03/05 11:16:54;;;;;;;35.97;15.15;;;4.60;99.90;;;;;;4947242;28;20700;-61
2022/03/05 11:19:22;;;;;;;32.58;15.00;;;4.50;99.90;;;;;;4951618;28;20057;-61
2022/03/05 11:21:48;;;;;;;35.78;16.05;;;4.70;99.90;;;;;;4945517;28;20051;-62
2022/03/05 11:24:16;;;;;;;36.35;15.02;;;4.80;99.90;;;;;;4951762;28;20124;-61
2022/03/05 11:26:42;;;;;;;33.38;14.02;;;4.80;99.90;;;;;;4949533;28;20035;-62
2022/03/05 11:29:07;;;;;;;35.10;15.68;;;4.90;99.90;;;;;;4954700;28;20074;-61
2022/03/05 11:31:34;;;;;;;36.30;15.32;;;4.90;99.90;;;;;;4951704;28;20105;-61
2022/03/05 11:34:14;;;;;;;32.00;14.45;;;4.80;99.90;;;;;;4951448;28;20102;-61
2022/03/05 11:36:41;;;;;;;39.30;15.27;;;4.90;99.90;;;;;;4957580;28;20047;-61
2022/03/05 11:39:16;;;;;;;37.13;16.30;;;5.00;99.90;;;;;;4952042;29;20062;-61
2022/03/05 11:42:04;;;;;;;39.03;15.70;;;5.20;99.90;;;;;;4952484;28;20391;-61
2022/03/05 11:44:39;;;;;;;33.20;14.60;;;5.40;99.90;;;;;;4963216;28;20042;-61
2022/03/05 11:47:28;;;;;;;35.72;14.88;;;5.40;99.90;;;;;;4951449;29;20047;-61
2022/03/05 11:49:58;;;;;;;34.47;15.00;;;5.50;99.90;;;;;;4961511;28;20092;-61
2022/03/05 11:52:43;;;;;;;37.05;15.55;;;5.60;99.90;;;;;;4953662;28;20078;-61
2022/03/05 11:55:14;;;;;;;36.45;14.60;;;5.60;99.90;;;;;;4954244;28;20055;-62
2022/03/05 11:57:51;;;;;;;34.00;15.77;;;5.70;99.90;;;;;;4959111;28;20039;-61
2022/03/05 12:00:36;;;;;;;41.53;15.40;;;5.70;99.90;;;;;;4952361;28;20055;-61
2022/03/05 12:03:03;;;;;;;39.42;16.27;;;5.80;99.90;;;;;;4959292;28;20043;-61
2022/03/05 12:05:37;;;;;;;39.17;16.13;;;5.90;99.90;;;;;;4961418;28;20130;-61
2022/03/05 12:08:26;;;;;;;33.08;15.52;;;6.00;99.90;;;;;;4953459;29;20039;-61
2022/03/05 12:11:15;;;;;;;35.45;15.30;;;6.00;99.90;;;;;;4952223;28;20126;-61
2022/03/05 12:13:51;;;;;;;36.45;15.85;;;6.00;99.90;;;;;;4952185;28;20047;-61
2022/03/05 12:16:22;;;;;;;36.30;15.88;;;6.10;99.90;;;;;;4940857;28;20054;-61
2022/03/05 12:18:51;;;;;;;;;;;6.10;99.90;;;;;;4964839;28;20138;-61
2022/03/05 12:21:27;;;;;;;35.17;15.05;;;6.30;99.90;;;;;;4959587;28;19917;-61
2022/03/05 12:24:07;;;;;;;35.45;14.95;;;6.40;99.90;;;;;;4953736;28;20051;-61
2022/03/05 12:26:45;;;;;;;34.83;15.43;;;6.50;99.90;;;;;;4956766;28;20138;-61
2022/03/05 12:29:11;;;;;;;35.83;15.68;;;6.50;99.90;;;;;;4966496;28;20489;-61
2022/03/05 12:31:44;;;;;;;34.75;15.40;;;6.60;99.90;;;;;;4965231;28;20038;-62
2022/03/05 12:34:11;;;;;;;33.55;15.73;;;6.60;99.90;;;;;;4958063;28;20043;-61
2022/03/05 12:36:44;;;;;;;33.83;16.05;;;6.70;99.90;;;;;;4956238;28;20043;-61
2022/03/05 12:39:10;;;;;;;37.35;17.02;;;6.80;99.90;;;;;;4959450;28;20524;-61
2022/03/05 12:41:36;;;;;;;36.90;17.63;;;6.90;99.90;;;;;;4964050;28;20043;-61
2022/03/05 12:44:01;;;;;;;33.78;16.98;;;6.90;99.90;;;;;;4964662;28;20382;-61
2022/03/05 12:46:27;;;;;;;34.78;15.75;;;7.00;99.90;;;;;;4962537;28;20039;-62
2022/03/05 12:48:52;;;;;;;34.45;16.50;;;6.90;99.90;;;;;;4940530;28;20039;-62
2022/03/05 12:51:21;;;;;;;36.33;16.70;;;6.90;99.90;;;;;;4958708;28;20036;-61
2022/03/05 12:53:57;;;;;;;36.10;16.15;;;6.90;99.90;;;;;;4964664;28;20042;-61
2022/03/05 12:56:23;;;;;;;35.00;16.27;;;6.90;99.90;;;;;;4959780;28;20409;-61
2022/03/05 12:58:55;;;;;;;36.33;16.90;;;7.00;99.90;;;;;;4953119;28;20497;-61
2022/03/05 13:01:21;;;;;;;35.70;16.13;;;7.10;99.90;;;;;;4959009;28;20114;-61
2022/03/05 13:03:47;;;;;;;35.75;16.30;;;7.10;99.90;;;;;;4959473;28;20253;-61
2022/03/05 13:06:12;;;;;;;34.25;16.30;;;7.20;99.90;;;;;;4949786;28;20039;-61
2022/03/05 13:08:39;;;;;;;34.40;16.33;;;7.20;99.90;;;;;;4950397;28;20406;-61
2022/03/05 13:11:09;;;;;;;34.10;15.95;;;7.30;99.90;;;;;;4957894;28;20046;-62
2022/03/05 13:14:00;;;;;;;33.63;15.60;;;7.40;99.90;;;;;;4959955;28;20057;-61
2022/03/05 13:16:36;;;;;;;30.77;15.77;;;7.30;99.90;;;;;;4959881;28;20051;-62
2022/03/05 13:19:05;;;;;;;33.72;16.02;;;7.30;99.90;;;;;;4962709;28;20039;-61
2022/03/05 13:21:38;;;;;;;33.08;14.98;;;7.20;99.90;;;;;;4959325;28;20092;-61
2022/03/05 13:24:08;;;;;;;35.83;16.20;;;7.30;99.90;;;;;;4933642;28;20045;-61
2022/03/05 13:26:38;;;;;;;32.47;15.98;;;7.30;99.90;;;;;;4955098;28;20568;-61
2022/03/05 13:29:05;;;;;;;33.22;15.88;;;7.50;99.90;;;;;;4956624;28;20166;-62
2022/03/05 13:31:32;;;;;;;36.13;15.57;;;7.60;99.90;;;;;;4960126;28;20603;-61
2022/03/05 13:33:57;;;;;;;34.63;16.48;;;7.60;99.90;;;;;;4951599;28;20564;-62
2022/03/05 13:36:36;;;;;;;35.38;16.08;;;7.70;99.90;;;;;;4950221;28;20125;-61
2022/03/05 13:39:20;;;;;;;33.15;15.50;;;7.80;99.90;;;;;;4955097;28;20075;-61
2022/03/05 13:41:47;;;;;;;32.00;16.15;;;7.80;99.90;;;;;;4939820;28;20043;-61
2022/03/05 13:44:21;;;;;;;29.55;15.30;;;7.80;99.90;;;;;;4955285;28;20054;-61
2022/03/05 13:46:47;;;;;;;34.58;15.43;;;7.70;99.90;;;;;;4953057;28;20065;-61
2022/03/05 13:49:17;;;;;;;31.63;15.98;;;7.70;99.90;;;;;;4950201;28;20043;-61
2022/03/05 13:51:49;;;;;;;33.50;15.85;;;7.70;99.90;;;;;;4950582;28;20118;-61
2022/03/05 13:54:14;;;;;;;28.95;15.65;;;7.70;99.90;;;;;;4950142;28;20047;-61
2022/03/05 13:56:44;;;;;;;29.92;14.70;;;7.80;99.90;;;;;;4958867;28;20034;-61
2022/03/05 13:59:11;;;;;;;29.63;15.68;;;7.80;99.90;;;;;;4955630;28;20051;-61
2022/03/05 14:01:40;;;;;;;32.60;15.18;;;7.90;99.90;;;;;;4939028;28;20575;-61
2022/03/05 14:04:17;;;;;;;32.03;15.63;;;7.90;99.90;;;;;;4934252;28;20043;-61
2022/03/05 14:06:56;;;;;;;32.03;15.68;;;7.80;99.90;;;;;;4953154;28;20086;-61
2022/03/05 14:09:37;;;;;;;31.02;15.75;;;7.80;99.90;;;;;;4950296;28;20043;-61
2022/03/05 14:12:03;;;;;;;30.77;14.73;;;7.80;99.90;;;;;;4957096;28;20046;-61